sensor_id;sensor_type;location;lat;lon;timestamp;temperature;humidity
27226;DHT22;14732;51.074;3.788;2023-07-28T00:02:24;19.80;99.90
27226;DHT22;14732;51.074;3.788;2023-07-28T00:04:55;19.80;99.90
27226;DHT22;14732;51.074;3.788;2023-07-28T00:07:25;19.80;99.90
27226;DHT22;14732;51.074;3.788;2023-07-28T00:09:56;20.00;99.90
27226;DHT22;14732;51.074;3.788;2023-07-28T00:12:24;20.00;99.90
27226;DHT22;14732;51.074;3.788;2023-07-28T00:14:52;20.00;99.90
27226;DHT22;14732;51.074;3.788;2023-07-28T00:17:21;20.00;99.90
27226;DHT22;14732;51.074;3.788;2023-07-28T00:19:52;20.00;99.90
27226;DHT22;14732;51.074;3.788;2023-07-28T00:22:20;20.10;99.90
27226;DHT22;14732;51.074;3.788;2023-07-28T00:24:51;20.00;99.90
27226;DHT22;14732;51.074;3.788;2023-07-28T00:27:19;20.00;99.90
27226;DHT22;14732;51.074;3.788;2023-07-28T00:29:53;20.00;99.90
27226;DHT22;14732;51.074;3.788;2023-07-28T00:32:23;19.90;99.90
27226;DHT22;14732;51.074;3.788;2023-07-28T00:34:54;20.20;99.90
27226;DHT22;14732;51.074;3.788;2023-07-28T00:37:35;20.20;99.90
27226;DHT22;14732;51.074;3.788;2023-07-28T00:40:02;20.20;99.90
27226;DHT22;14732;51.074;3.788;2023-07-28T00:42:40;20.10;99.90
27226;DHT22;14732;51.074;3.788;2023-07-28T00:45:11;20.00;99.90
27226;DHT22;14732;51.074;3.788;2023-07-28T00:47:43;20.00;99.90
27226;DHT22;14732;51.074;3.788;2023-07-28T00:50:14;20.10;99.90
27226;DHT22;14732;51.074;3.788;2023-07-28T00:52:45;20.10;99.90
27226;DHT22;14732;51.074;3.788;2023-07-28T00:55:15;20.00;99.90
27226;DHT22;14732;51.074;3.788;2023-07-28T00:57:45;20.10;99.90
27226;DHT22;14732;51.074;3.788;2023-07-28T01:00:12;20.20;99.90
27226;DHT22;14732;51.074;3.788;2023-07-28T01:02:44;20.10;99.90
27226;DHT22;14732;51.074;3.788;2023-07-28T01:05:15;20.10;99.90
27226;DHT22;14732;51.074;3.788;2023-07-28T01:07:59;20.10;99.90
27226;DHT22;14732;51.074;3.788;2023-07-28T01:10:32;20.10;99.90
27226;DHT22;14732;51.074;3.788;2023-07-28T01:13:00;20.10;99.90
27226;DHT22;14732;51.074;3.788;2023-07-28T01:15:30;20.20;99.90
27226;DHT22;14732;51.074;3.788;2023-07-28T01:18:01;20.20;99.90
27226;DHT22;14732;51.074;3.788;2023-07-28T01:20:31;20.30;99.90
27226;DHT22;14732;51.074;3.788;2023-07-28T01:23:09;20.30;99.90
27226;DHT22;14732;51.074;3.788;2023-07-28T01:28:18;20.20;99.90
27226;DHT22;14732;51.074;3.788;2023-07-28T01:30:47;20.30;99.90
27226;DHT22;14732;51.074;3.788;2023-07-28T01:33:16;20.20;99.90
27226;DHT22;14732;51.074;3.788;2023-07-28T01:35:44;20.20;99.90
27226;DHT22;14732;51.074;3.788;2023-07-28T01:38:21;20.20;99.90
27226;DHT22;14732;51.074;3.788;2023-07-28T01:40:49;20.20;99.90
27226;DHT22;14732;51.074;3.788;2023-07-28T01:43:21;20.20;99.90
27226;DHT22;14732;51.074;3.788;2023-07-28T01:45:52;20.30;99.90
27226;DHT22;14732;51.074;3.788;2023-07-28T01:48:21;20.20;99.90
27226;DHT22;14732;51.074;3.788;2023-07-28T01:50:51;20.20;99.90
27226;DHT22;14732;51.074;3.788;2023-07-28T01:53:19;20.20;99.90
27226;DHT22;14732;51.074;3.788;2023-07-28T01:55:48;20.20;99.90
27226;DHT22;14732;51.074;3.788;2023-07-28T02:01:08;20.20;99.90
27226;DHT22;14732;51.074;3.788;2023-07-28T02:03:37;20.30;99.90
27226;DHT22;14732;51.074;3.788;2023-07-28T02:06:39;20.10;99.90
27226;DHT22;14732;51.074;3.788;2023-07-28T02:09:29;20.20;99.90
27226;DHT22;14732;51.074;3.788;2023-07-28T02:11:58;20.20;99.90
27226;DHT22;14732;51.074;3.788;2023-07-28T02:14:30;20.20;99.90
27226;DHT22;14732;51.074;3.788;2023-07-28T02:16:58;20.20;99.90
27226;DHT22;14732;51.074;3.788;2023-07-28T02:19:29;20.30;99.90
27226;DHT22;14732;51.074;3.788;2023-07-28T02:25:24;20.30;99.90
27226;DHT22;14732;51.074;3.788;2023-07-28T02:28:17;20.40;99.90
27226;DHT22;14732;51.074;3.788;2023-07-28T02:30:48;20.30;99.90
27226;DHT22;14732;51.074;3.788;2023-07-28T02:33:19;20.30;99.90
27226;DHT22;14732;51.074;3.788;2023-07-28T02:35:48;20.30;99.90
27226;DHT22;14732;51.074;3.788;2023-07-28T02:38:17;20.30;99.90
27226;DHT22;14732;51.074;3.788;2023-07-28T02:40:58;20.40;99.90
27226;DHT22;14732;51.074;3.788;2023-07-28T02:43:32;20.20;99.90
27226;DHT22;14732;51.074;3.788;2023-07-28T02:46:03;20.20;99.90
27226;DHT22;14732;51.074;3.788;2023-07-28T02:48:33;20.30;99.90
27226;DHT22;14732;51.074;3.788;2023-07-28T02:51:06;20.30;99.90
27226;DHT22;14732;51.074;3.788;2023-07-28T02:53:37;20.20;99.90
27226;DHT22;14732;51.074;3.788;2023-07-28T02:56:14;20.20;99.90
27226;DHT22;14732;51.074;3.788;2023-07-28T02:58:55;20.20;99.90
27226;DHT22;14732;51.074;3.788;2023-07-28T03:01:25;20.20;99.90
27226;DHT22;14732;51.074;3.788;2023-07-28T03:03:56;20.20;99.90
27226;DHT22;14732;51.074;3.788;2023-07-28T03:09:49;20.20;99.90
27226;DHT22;14732;51.074;3.788;2023-07-28T03:12:24;20.20;99.90
27226;DHT22;14732;51.074;3.788;2023-07-28T03:14:53;20.10;99.90
27226;DHT22;14732;51.074;3.788;2023-07-28T03:17:24;20.20;99.90
27226;DHT22;14732;51.074;3.788;2023-07-28T03:19:54;20.30;99.90
27226;DHT22;14732;51.074;3.788;2023-07-28T03:22:23;20.20;99.90
27226;DHT22;14732;51.074;3.788;2023-07-28T03:24:53;20.10;99.90
27226;DHT22;14732;51.074;3.788;2023-07-28T03:27:23;20.10;99.90
27226;DHT22;14732;51.074;3.788;2023-07-28T03:29:52;20.20;99.90
27226;DHT22;14732;51.074;3.788;2023-07-28T03:32:21;20.30;99.90
27226;DHT22;14732;51.074;3.788;2023-07-28T03:34:56;20.30;99.90
27226;DHT22;14732;51.074;3.788;2023-07-28T03:38:05;20.20;99.90
27226;DHT22;14732;51.074;3.788;2023-07-28T03:41:06;20.10;99.90
27226;DHT22;14732;51.074;3.788;2023-07-28T03:43:40;20.30;99.90
27226;DHT22;14732;51.074;3.788;2023-07-28T03:46:09;20.30;99.90
27226;DHT22;14732;51.074;3.788;2023-07-28T03:55:04;20.30;99.90
27226;DHT22;14732;51.074;3.788;2023-07-28T03:57:37;20.20;99.90
27226;DHT22;14732;51.074;3.788;2023-07-28T04:00:07;20.20;99.90
27226;DHT22;14732;51.074;3.788;2023-07-28T04:02:36;20.20;99.90
27226;DHT22;14732;51.074;3.788;2023-07-28T04:05:07;20.20;99.90
27226;DHT22;14732;51.074;3.788;2023-07-28T04:07:40;20.30;99.90
27226;DHT22;14732;51.074;3.788;2023-07-28T04:10:08;20.30;99.90
27226;DHT22;14732;51.074;3.788;2023-07-28T04:12:38;20.30;99.90
27226;DHT22;14732;51.074;3.788;2023-07-28T04:15:06;20.20;99.90
27226;DHT22;14732;51.074;3.788;2023-07-28T04:17:35;20.20;99.90
27226;DHT22;14732;51.074;3.788;2023-07-28T04:20:02;20.30;99.90
27226;DHT22;14732;51.074;3.788;2023-07-28T04:22:30;20.30;99.90
27226;DHT22;14732;51.074;3.788;2023-07-28T04:24:58;20.30;99.90
27226;DHT22;14732;51.074;3.788;2023-07-28T04:27:30;20.40;99.90
27226;DHT22;14732;51.074;3.788;2023-07-28T04:29:58;20.40;99.90
27226;DHT22;14732;51.074;3.788;2023-07-28T04:32:26;20.20;99.90
27226;DHT22;14732;51.074;3.788;2023-07-28T04:34:54;20.20;99.90
27226;DHT22;14732;51.074;3.788;2023-07-28T04:37:23;20.20;99.90
27226;DHT22;14732;51.074;3.788;2023-07-28T04:39:52;20.30;99.90
27226;DHT22;14732;51.074;3.788;2023-07-28T04:42:24;20.30;99.90
27226;DHT22;14732;51.074;3.788;2023-07-28T04:44:54;20.30;99.90
27226;DHT22;14732;51.074;3.788;2023-07-28T04:47:24;20.30;99.90
27226;DHT22;14732;51.074;3.788;2023-07-28T04:50:07;20.40;99.90
27226;DHT22;14732;51.074;3.788;2023-07-28T04:52:41;20.40;99.90
27226;DHT22;14732;51.074;3.788;2023-07-28T04:55:12;20.50;99.90
27226;DHT22;14732;51.074;3.788;2023-07-28T04:57:40;20.50;99.90
27226;DHT22;14732;51.074;3.788;2023-07-28T05:00:09;20.60;99.90
27226;DHT22;14732;51.074;3.788;2023-07-28T05:02:38;20.70;99.90
27226;DHT22;14732;51.074;3.788;2023-07-28T05:05:05;20.70;99.90
27226;DHT22;14732;51.074;3.788;2023-07-28T05:07:34;20.60;99.90
27226;DHT22;14732;51.074;3.788;2023-07-28T05:10:09;20.70;99.90
27226;DHT22;14732;51.074;3.788;2023-07-28T05:12:38;20.50;99.90
27226;DHT22;14732;51.074;3.788;2023-07-28T05:15:06;20.60;99.90
27226;DHT22;14732;51.074;3.788;2023-07-28T05:17:38;20.60;99.90
27226;DHT22;14732;51.074;3.788;2023-07-28T05:20:07;20.70;99.90
27226;DHT22;14732;51.074;3.788;2023-07-28T05:22:37;20.70;99.90
27226;DHT22;14732;51.074;3.788;2023-07-28T05:25:09;20.70;99.90
27226;DHT22;14732;51.074;3.788;2023-07-28T05:27:39;20.60;99.90
27226;DHT22;14732;51.074;3.788;2023-07-28T05:30:09;20.40;99.90
27226;DHT22;14732;51.074;3.788;2023-07-28T05:32:39;20.50;99.90
27226;DHT22;14732;51.074;3.788;2023-07-28T05:35:07;20.60;99.90
27226;DHT22;14732;51.074;3.788;2023-07-28T05:37:37;20.70;99.90
27226;DHT22;14732;51.074;3.788;2023-07-28T05:40:20;20.80;99.90
27226;DHT22;14732;51.074;3.788;2023-07-28T05:42:49;20.90;99.90
27226;DHT22;14732;51.074;3.788;2023-07-28T05:45:20;21.00;99.90
27226;DHT22;14732;51.074;3.788;2023-07-28T05:47:54;21.00;99.90
27226;DHT22;14732;51.074;3.788;2023-07-28T05:50:22;21.00;99.90
27226;DHT22;14732;51.074;3.788;2023-07-28T05:52:57;20.90;99.90
27226;DHT22;14732;51.074;3.788;2023-07-28T05:55:45;21.10;99.90
27226;DHT22;14732;51.074;3.788;2023-07-28T05:58:44;21.20;99.90
27226;DHT22;14732;51.074;3.788;2023-07-28T06:01:50;21.10;99.90
27226;DHT22;14732;51.074;3.788;2023-07-28T06:04:12;21.20;99.90
27226;DHT22;14732;51.074;3.788;2023-07-28T06:07:12;21.20;99.90
27226;DHT22;14732;51.074;3.788;2023-07-28T06:09:50;21.10;99.90
27226;DHT22;14732;51.074;3.788;2023-07-28T06:12:19;21.10;99.90
27226;DHT22;14732;51.074;3.788;2023-07-28T06:14:48;21.30;99.90
27226;DHT22;14732;51.074;3.788;2023-07-28T06:17:15;21.50;99.90
27226;DHT22;14732;51.074;3.788;2023-07-28T06:19:45;21.60;99.90
27226;DHT22;14732;51.074;3.788;2023-07-28T06:23:05;21.60;99.90
27226;DHT22;14732;51.074;3.788;2023-07-28T06:25:37;21.60;99.90
27226;DHT22;14732;51.074;3.788;2023-07-28T06:28:11;21.50;99.90
27226;DHT22;14732;51.074;3.788;2023-07-28T06:30:43;21.40;99.90
27226;DHT22;14732;51.074;3.788;2023-07-28T06:33:28;21.60;99.90
27226;DHT22;14732;51.074;3.788;2023-07-28T06:36:06;21.40;99.90
27226;DHT22;14732;51.074;3.788;2023-07-28T06:38:46;21.40;99.90
27226;DHT22;14732;51.074;3.788;2023-07-28T06:41:23;21.30;99.90
27226;DHT22;14732;51.074;3.788;2023-07-28T06:43:53;21.20;99.90
27226;DHT22;14732;51.074;3.788;2023-07-28T06:46:21;21.30;99.90
27226;DHT22;14732;51.074;3.788;2023-07-28T06:48:59;21.50;99.90
27226;DHT22;14732;51.074;3.788;2023-07-28T06:51:55;21.70;99.90
27226;DHT22;14732;51.074;3.788;2023-07-28T06:54:39;21.90;99.90
27226;DHT22;14732;51.074;3.788;2023-07-28T06:57:08;22.00;99.90
27226;DHT22;14732;51.074;3.788;2023-07-28T06:59:37;21.90;99.90
27226;DHT22;14732;51.074;3.788;2023-07-28T07:02:05;21.80;99.90
27226;DHT22;14732;51.074;3.788;2023-07-28T07:04:36;22.00;99.90
27226;DHT22;14732;51.074;3.788;2023-07-28T07:07:20;21.80;99.90
27226;DHT22;14732;51.074;3.788;2023-07-28T07:09:56;22.00;99.90
27226;DHT22;14732;51.074;3.788;2023-07-28T07:12:26;22.30;99.90
27226;DHT22;14732;51.074;3.788;2023-07-28T07:14:55;22.70;99.90
27226;DHT22;14732;51.074;3.788;2023-07-28T07:17:23;22.80;99.90
27226;DHT22;14732;51.074;3.788;2023-07-28T07:19:53;22.90;99.90
27226;DHT22;14732;51.074;3.788;2023-07-28T07:22:45;23.10;99.90
27226;DHT22;14732;51.074;3.788;2023-07-28T07:25:16;23.20;99.90
27226;DHT22;14732;51.074;3.788;2023-07-28T07:27:46;23.40;99.90
27226;DHT22;14732;51.074;3.788;2023-07-28T07:30:22;23.20;99.90
27226;DHT22;14732;51.074;3.788;2023-07-28T07:33:20;23.30;99.90
27226;DHT22;14732;51.074;3.788;2023-07-28T07:35:52;23.20;99.90
27226;DHT22;14732;51.074;3.788;2023-07-28T07:38:20;23.50;99.90
27226;DHT22;14732;51.074;3.788;2023-07-28T07:40:50;23.70;99.90
27226;DHT22;14732;51.074;3.788;2023-07-28T07:43:21;24.10;99.90
27226;DHT22;14732;51.074;3.788;2023-07-28T07:45:51;24.50;99.90
27226;DHT22;14732;51.074;3.788;2023-07-28T07:48:22;24.90;99.90
27226;DHT22;14732;51.074;3.788;2023-07-28T07:50:51;25.00;99.90
27226;DHT22;14732;51.074;3.788;2023-07-28T07:53:22;25.20;99.90
27226;DHT22;14732;51.074;3.788;2023-07-28T07:55:51;25.10;99.90
27226;DHT22;14732;51.074;3.788;2023-07-28T07:58:22;24.90;99.90
27226;DHT22;14732;51.074;3.788;2023-07-28T08:00:56;24.60;99.90
27226;DHT22;14732;51.074;3.788;2023-07-28T08:03:24;24.40;99.90
27226;DHT22;14732;51.074;3.788;2023-07-28T08:05:54;24.10;99.90
27226;DHT22;14732;51.074;3.788;2023-07-28T08:08:23;24.20;99.90
27226;DHT22;14732;51.074;3.788;2023-07-28T08:10:54;24.00;99.90
27226;DHT22;14732;51.074;3.788;2023-07-28T08:13:23;24.00;99.90
27226;DHT22;14732;51.074;3.788;2023-07-28T08:15:53;24.10;99.90
27226;DHT22;14732;51.074;3.788;2023-07-28T08:18:19;24.40;99.90
27226;DHT22;14732;51.074;3.788;2023-07-28T08:20:50;24.60;99.90
27226;DHT22;14732;51.074;3.788;2023-07-28T08:23:19;24.60;99.90
27226;DHT22;14732;51.074;3.788;2023-07-28T08:25:49;24.80;99.90
27226;DHT22;14732;51.074;3.788;2023-07-28T08:28:20;25.10;99.90
27226;DHT22;14732;51.074;3.788;2023-07-28T08:30:56;25.40;99.90
27226;DHT22;14732;51.074;3.788;2023-07-28T08:33:26;25.40;99.90
27226;DHT22;14732;51.074;3.788;2023-07-28T08:35:55;25.40;99.90
27226;DHT22;14732;51.074;3.788;2023-07-28T08:38:25;25.30;99.90
27226;DHT22;14732;51.074;3.788;2023-07-28T08:40:57;25.10;99.90
27226;DHT22;14732;51.074;3.788;2023-07-28T08:43:24;25.00;99.90
27226;DHT22;14732;51.074;3.788;2023-07-28T08:45:56;25.00;99.90
27226;DHT22;14732;51.074;3.788;2023-07-28T08:48:28;25.10;99.90
27226;DHT22;14732;51.074;3.788;2023-07-28T08:50:58;24.80;99.90
27226;DHT22;14732;51.074;3.788;2023-07-28T08:53:30;24.60;99.90
27226;DHT22;14732;51.074;3.788;2023-07-28T08:55:58;24.30;99.90
27226;DHT22;14732;51.074;3.788;2023-07-28T08:58:26;24.20;99.90
27226;DHT22;14732;51.074;3.788;2023-07-28T09:00:55;23.80;99.90
27226;DHT22;14732;51.074;3.788;2023-07-28T09:03:28;23.80;99.90
27226;DHT22;14732;51.074;3.788;2023-07-28T09:06:12;24.10;99.90
27226;DHT22;14732;51.074;3.788;2023-07-28T09:08:47;24.00;99.90
27226;DHT22;14732;51.074;3.788;2023-07-28T09:11:25;24.10;99.90
27226;DHT22;14732;51.074;3.788;2023-07-28T09:13:57;24.10;99.90
27226;DHT22;14732;51.074;3.788;2023-07-28T09:16:32;24.30;99.90
27226;DHT22;14732;51.074;3.788;2023-07-28T09:19:07;24.20;99.90
27226;DHT22;14732;51.074;3.788;2023-07-28T09:22:13;24.10;99.90
27226;DHT22;14732;51.074;3.788;2023-07-28T09:24:42;24.00;99.90
27226;DHT22;14732;51.074;3.788;2023-07-28T09:27:22;23.90;99.90
27226;DHT22;14732;51.074;3.788;2023-07-28T09:29:51;24.20;99.90
27226;DHT22;14732;51.074;3.788;2023-07-28T09:32:31;24.30;99.90
27226;DHT22;14732;51.074;3.788;2023-07-28T09:35:11;24.50;99.90
27226;DHT22;14732;51.074;3.788;2023-07-28T09:37:42;24.80;99.90
27226;DHT22;14732;51.074;3.788;2023-07-28T09:40:19;25.10;99.90
27226;DHT22;14732;51.074;3.788;2023-07-28T09:42:48;25.40;99.90
27226;DHT22;14732;51.074;3.788;2023-07-28T09:45:22;25.60;99.90
27226;DHT22;14732;51.074;3.788;2023-07-28T09:47:53;25.60;99.90
27226;DHT22;14732;51.074;3.788;2023-07-28T09:50:24;25.60;99.90
27226;DHT22;14732;51.074;3.788;2023-07-28T09:52:54;25.60;99.90
27226;DHT22;14732;51.074;3.788;2023-07-28T09:55:24;25.60;99.90
27226;DHT22;14732;51.074;3.788;2023-07-28T09:57:54;25.60;99.90
27226;DHT22;14732;51.074;3.788;2023-07-28T10:00:24;25.60;99.90
27226;DHT22;14732;51.074;3.788;2023-07-28T10:02:53;25.50;99.90
27226;DHT22;14732;51.074;3.788;2023-07-28T10:05:22;25.20;99.90
27226;DHT22;14732;51.074;3.788;2023-07-28T10:07:52;25.00;99.90
27226;DHT22;14732;51.074;3.788;2023-07-28T10:10:19;24.60;99.90
27226;DHT22;14732;51.074;3.788;2023-07-28T10:12:50;24.30;99.90
27226;DHT22;14732;51.074;3.788;2023-07-28T10:15:20;24.50;99.90
27226;DHT22;14732;51.074;3.788;2023-07-28T10:17:55;24.70;99.90
27226;DHT22;14732;51.074;3.788;2023-07-28T10:20:30;24.90;99.90
27226;DHT22;14732;51.074;3.788;2023-07-28T10:25:36;25.00;99.90
27226;DHT22;14732;51.074;3.788;2023-07-28T10:28:06;25.00;99.90
27226;DHT22;14732;51.074;3.788;2023-07-28T10:30:50;24.80;99.90
27226;DHT22;14732;51.074;3.788;2023-07-28T10:36:00;25.20;99.90
27226;DHT22;14732;51.074;3.788;2023-07-28T10:38:39;25.40;99.90
27226;DHT22;14732;51.074;3.788;2023-07-28T10:41:14;25.40;99.90
27226;DHT22;14732;51.074;3.788;2023-07-28T10:43:44;25.40;99.90
27226;DHT22;14732;51.074;3.788;2023-07-28T10:46:14;25.40;99.90
27226;DHT22;14732;51.074;3.788;2023-07-28T10:48:46;25.10;99.90
27226;DHT22;14732;51.074;3.788;2023-07-28T10:51:49;25.30;99.90
27226;DHT22;14732;51.074;3.788;2023-07-28T10:54:36;25.50;99.90
27226;DHT22;14732;51.074;3.788;2023-07-28T10:57:06;25.80;99.90
27226;DHT22;14732;51.074;3.788;2023-07-28T10:59:36;25.60;99.90
27226;DHT22;14732;51.074;3.788;2023-07-28T11:02:13;25.60;99.90
27226;DHT22;14732;51.074;3.788;2023-07-28T11:04:46;25.30;99.90
27226;DHT22;14732;51.074;3.788;2023-07-28T11:07:17;25.10;99.90
27226;DHT22;14732;51.074;3.788;2023-07-28T11:09:45;24.90;99.90
27226;DHT22;14732;51.074;3.788;2023-07-28T11:12:17;24.90;99.90
27226;DHT22;14732;51.074;3.788;2023-07-28T11:14:47;24.90;99.90
27226;DHT22;14732;51.074;3.788;2023-07-28T11:17:15;24.90;99.90
27226;DHT22;14732;51.074;3.788;2023-07-28T11:19:44;25.20;99.90
27226;DHT22;14732;51.074;3.788;2023-07-28T11:22:31;25.50;99.90
27226;DHT22;14732;51.074;3.788;2023-07-28T11:25:05;25.50;99.90
27226;DHT22;14732;51.074;3.788;2023-07-28T11:27:39;25.30;99.90
27226;DHT22;14732;51.074;3.788;2023-07-28T11:30:08;25.10;99.90
27226;DHT22;14732;51.074;3.788;2023-07-28T11:32:37;24.70;99.90
27226;DHT22;14732;51.074;3.788;2023-07-28T11:35:09;24.40;99.90
27226;DHT22;14732;51.074;3.788;2023-07-28T11:37:40;24.00;99.90
27226;DHT22;14732;51.074;3.788;2023-07-28T11:40:11;23.70;99.90
27226;DHT22;14732;51.074;3.788;2023-07-28T11:42:50;23.70;99.90
27226;DHT22;14732;51.074;3.788;2023-07-28T11:45:20;23.60;99.90
27226;DHT22;14732;51.074;3.788;2023-07-28T11:48:05;23.60;99.90
27226;DHT22;14732;51.074;3.788;2023-07-28T11:50:41;23.60;99.90
27226;DHT22;14732;51.074;3.788;2023-07-28T11:53:12;23.70;99.90
27226;DHT22;14732;51.074;3.788;2023-07-28T11:55:41;23.80;99.90
27226;DHT22;14732;51.074;3.788;2023-07-28T11:58:11;23.90;99.90
27226;DHT22;14732;51.074;3.788;2023-07-28T12:00:40;24.10;99.90
27226;DHT22;14732;51.074;3.788;2023-07-28T12:03:12;24.20;99.90
27226;DHT22;14732;51.074;3.788;2023-07-28T12:06:04;24.70;99.90
27226;DHT22;14732;51.074;3.788;2023-07-28T12:08:41;25.10;99.90
27226;DHT22;14732;51.074;3.788;2023-07-28T12:11:14;25.70;99.90
27226;DHT22;14732;51.074;3.788;2023-07-28T12:13:51;25.80;99.90
27226;DHT22;14732;51.074;3.788;2023-07-28T12:16:56;25.80;99.90
27226;DHT22;14732;51.074;3.788;2023-07-28T12:19:26;25.10;99.90
27226;DHT22;14732;51.074;3.788;2023-07-28T12:22:19;24.80;99.90
27226;DHT22;14732;51.074;3.788;2023-07-28T12:24:47;24.60;99.90
27226;DHT22;14732;51.074;3.788;2023-07-28T12:27:14;24.30;99.90
27226;DHT22;14732;51.074;3.788;2023-07-28T12:29:43;24.40;99.90
27226;DHT22;14732;51.074;3.788;2023-07-28T12:32:11;24.80;99.90
27226;DHT22;14732;51.074;3.788;2023-07-28T12:34:40;25.20;99.90
27226;DHT22;14732;51.074;3.788;2023-07-28T12:37:20;25.50;99.90
27226;DHT22;14732;51.074;3.788;2023-07-28T12:39:53;25.90;99.90
27226;DHT22;14732;51.074;3.788;2023-07-28T12:42:25;25.80;99.90
27226;DHT22;14732;51.074;3.788;2023-07-28T12:44:54;26.00;99.90
27226;DHT22;14732;51.074;3.788;2023-07-28T12:47:23;26.30;99.90
27226;DHT22;14732;51.074;3.788;2023-07-28T12:49:54;26.50;99.90
27226;DHT22;14732;51.074;3.788;2023-07-28T12:52:23;26.40;99.90
27226;DHT22;14732;51.074;3.788;2023-07-28T12:54:52;26.40;99.90
27226;DHT22;14732;51.074;3.788;2023-07-28T12:57:23;26.90;99.90
27226;DHT22;14732;51.074;3.788;2023-07-28T12:59:53;27.20;99.90
27226;DHT22;14732;51.074;3.788;2023-07-28T13:02:21;27.20;99.90
27226;DHT22;14732;51.074;3.788;2023-07-28T13:04:52;27.10;99.90
27226;DHT22;14732;51.074;3.788;2023-07-28T13:07:23;26.90;99.90
27226;DHT22;14732;51.074;3.788;2023-07-28T13:09:52;26.70;99.90
27226;DHT22;14732;51.074;3.788;2023-07-28T13:12:22;26.60;99.90
27226;DHT22;14732;51.074;3.788;2023-07-28T13:14:52;26.30;99.90
27226;DHT22;14732;51.074;3.788;2023-07-28T13:17:23;26.30;99.90
27226;DHT22;14732;51.074;3.788;2023-07-28T13:19:53;25.90;99.90
27226;DHT22;14732;51.074;3.788;2023-07-28T13:22:25;25.90;99.90
27226;DHT22;14732;51.074;3.788;2023-07-28T13:24:53;25.70;99.90
27226;DHT22;14732;51.074;3.788;2023-07-28T13:27:23;25.60;99.90
27226;DHT22;14732;51.074;3.788;2023-07-28T13:29:56;25.60;99.90
27226;DHT22;14732;51.074;3.788;2023-07-28T13:32:25;26.00;99.90
27226;DHT22;14732;51.074;3.788;2023-07-28T13:34:55;26.30;99.90
27226;DHT22;14732;51.074;3.788;2023-07-28T13:37:28;26.60;99.90
27226;DHT22;14732;51.074;3.788;2023-07-28T13:39:58;26.60;99.90
27226;DHT22;14732;51.074;3.788;2023-07-28T13:42:29;26.60;99.90
27226;DHT22;14732;51.074;3.788;2023-07-28T13:44:59;26.70;99.90
27226;DHT22;14732;51.074;3.788;2023-07-28T13:47:43;26.80;99.90
27226;DHT22;14732;51.074;3.788;2023-07-28T13:50:16;27.00;99.90
27226;DHT22;14732;51.074;3.788;2023-07-28T13:52:56;27.30;99.90
27226;DHT22;14732;51.074;3.788;2023-07-28T13:55:25;27.30;99.90
27226;DHT22;14732;51.074;3.788;2023-07-28T13:57:58;27.00;99.90
27226;DHT22;14732;51.074;3.788;2023-07-28T14:00:29;26.90;99.90
27226;DHT22;14732;51.074;3.788;2023-07-28T14:02:59;27.10;99.90
27226;DHT22;14732;51.074;3.788;2023-07-28T14:05:29;27.30;99.90
27226;DHT22;14732;51.074;3.788;2023-07-28T14:07:58;27.60;99.90
27226;DHT22;14732;51.074;3.788;2023-07-28T14:10:28;27.70;99.90
27226;DHT22;14732;51.074;3.788;2023-07-28T14:12:59;27.90;99.90
27226;DHT22;14732;51.074;3.788;2023-07-28T14:15:30;27.90;99.90
27226;DHT22;14732;51.074;3.788;2023-07-28T14:18:14;28.10;99.90
27226;DHT22;14732;51.074;3.788;2023-07-28T14:20:44;28.30;99.90
27226;DHT22;14732;51.074;3.788;2023-07-28T14:23:29;27.90;99.90
27226;DHT22;14732;51.074;3.788;2023-07-28T14:25:59;27.90;99.90
27226;DHT22;14732;51.074;3.788;2023-07-28T14:28:27;28.00;99.90
27226;DHT22;14732;51.074;3.788;2023-07-28T14:31:08;27.80;99.90
27226;DHT22;14732;51.074;3.788;2023-07-28T14:33:36;27.80;99.90
27226;DHT22;14732;51.074;3.788;2023-07-28T14:36:12;27.60;99.90
27226;DHT22;14732;51.074;3.788;2023-07-28T14:38:49;27.60;99.90
27226;DHT22;14732;51.074;3.788;2023-07-28T14:41:19;27.60;99.90
27226;DHT22;14732;51.074;3.788;2023-07-28T14:43:52;27.60;99.90
27226;DHT22;14732;51.074;3.788;2023-07-28T14:46:23;27.40;99.90
27226;DHT22;14732;51.074;3.788;2023-07-28T14:48:57;27.30;99.90
27226;DHT22;14732;51.074;3.788;2023-07-28T14:52:24;27.20;99.90
27226;DHT22;14732;51.074;3.788;2023-07-28T14:54:52;27.40;99.90
27226;DHT22;14732;51.074;3.788;2023-07-28T14:57:20;27.70;99.90
27226;DHT22;14732;51.074;3.788;2023-07-28T14:59:49;27.70;99.90
27226;DHT22;14732;51.074;3.788;2023-07-28T15:02:19;27.70;99.90
27226;DHT22;14732;51.074;3.788;2023-07-28T15:04:50;27.50;99.90
27226;DHT22;14732;51.074;3.788;2023-07-28T15:10:51;27.50;99.90
27226;DHT22;14732;51.074;3.788;2023-07-28T15:13:21;27.80;99.90
27226;DHT22;14732;51.074;3.788;2023-07-28T15:15:49;27.90;99.90
27226;DHT22;14732;51.074;3.788;2023-07-28T15:18:18;28.00;99.90
27226;DHT22;14732;51.074;3.788;2023-07-28T15:20:48;28.20;99.90
27226;DHT22;14732;51.074;3.788;2023-07-28T15:23:22;28.00;99.90
27226;DHT22;14732;51.074;3.788;2023-07-28T15:26:07;27.90;99.90
27226;DHT22;14732;51.074;3.788;2023-07-28T15:28:39;27.90;99.90
27226;DHT22;14732;51.074;3.788;2023-07-28T15:31:08;27.90;99.90
27226;DHT22;14732;51.074;3.788;2023-07-28T15:33:38;28.00;99.90
27226;DHT22;14732;51.074;3.788;2023-07-28T15:36:07;28.10;99.90
27226;DHT22;14732;51.074;3.788;2023-07-28T15:38:52;27.90;99.90
27226;DHT22;14732;51.074;3.788;2023-07-28T15:41:26;27.90;99.90
27226;DHT22;14732;51.074;3.788;2023-07-28T15:43:59;27.90;99.90
27226;DHT22;14732;51.074;3.788;2023-07-28T15:46:35;27.80;99.90
27226;DHT22;14732;51.074;3.788;2023-07-28T15:49:06;27.60;99.90
27226;DHT22;14732;51.074;3.788;2023-07-28T15:52:19;27.50;99.90
27226;DHT22;14732;51.074;3.788;2023-07-28T15:54:52;27.50;99.90
27226;DHT22;14732;51.074;3.788;2023-07-28T15:57:20;27.60;99.90
27226;DHT22;14732;51.074;3.788;2023-07-28T15:59:50;27.60;99.90
27226;DHT22;14732;51.074;3.788;2023-07-28T16:02:20;27.50;99.90
27226;DHT22;14732;51.074;3.788;2023-07-28T16:04:53;27.40;99.90
27226;DHT22;14732;51.074;3.788;2023-07-28T16:07:25;27.20;99.90
27226;DHT22;14732;51.074;3.788;2023-07-28T16:09:53;27.40;99.90
27226;DHT22;14732;51.074;3.788;2023-07-28T16:12:24;27.40;99.90
27226;DHT22;14732;51.074;3.788;2023-07-28T16:14:56;27.30;99.90
27226;DHT22;14732;51.074;3.788;2023-07-28T16:17:23;27.30;99.90
27226;DHT22;14732;51.074;3.788;2023-07-28T16:19:53;27.20;99.90
27226;DHT22;14732;51.074;3.788;2023-07-28T16:22:21;27.00;99.90
27226;DHT22;14732;51.074;3.788;2023-07-28T16:24:53;27.10;99.90
27226;DHT22;14732;51.074;3.788;2023-07-28T16:27:24;27.10;99.90
27226;DHT22;14732;51.074;3.788;2023-07-28T16:29:52;27.10;99.90
27226;DHT22;14732;51.074;3.788;2023-07-28T16:32:22;27.00;99.90
27226;DHT22;14732;51.074;3.788;2023-07-28T16:34:51;27.10;99.90